createdAt,value
2022-08-07T00:11:03.323Z,19.32
2022-08-07T00:31:03.290Z,19.18
2022-08-07T00:51:03.284Z,19.23
2022-08-07T01:11:03.234Z,18.98
2022-08-07T01:31:03.198Z,18.87
2022-08-07T01:51:03.197Z,18.76
2022-08-07T02:11:03.260Z,18.55
2022-08-07T02:31:04.689Z,18.36
2022-08-07T02:51:03.090Z,18.07
2022-08-07T03:11:03.068Z,17.99
2022-08-07T03:31:03.030Z,17.92
2022-08-07T03:51:02.994Z,18.04
2022-08-07T04:11:02.972Z,18.03
2022-08-07T04:31:02.932Z,17.81
2022-08-07T04:51:02.910Z,17.56
2022-08-07T05:11:02.883Z,17.50
2022-08-07T05:31:02.860Z,17.64
2022-08-07T05:51:02.834Z,17.47
2022-08-07T06:11:02.794Z,17.71
2022-08-07T06:31:02.816Z,18.05
2022-08-07T06:51:02.746Z,18.03
2022-08-07T07:11:02.710Z,18.22
2022-08-07T07:31:02.673Z,18.78
2022-08-07T07:51:02.655Z,18.92
2022-08-07T08:11:02.622Z,19.46
2022-08-07T08:31:02.613Z,19.74
2022-08-07T08:51:02.581Z,19.94
2022-08-07T09:11:02.535Z,20.54
2022-08-07T09:31:02.527Z,20.97
2022-08-07T09:51:02.486Z,21.24
2022-08-07T10:11:02.457Z,21.28
2022-08-07T10:31:02.439Z,21.80
2022-08-07T10:51:02.382Z,21.96
2022-08-07T11:11:02.359Z,22.45
2022-08-07T11:31:02.324Z,22.44
2022-08-07T11:51:03.705Z,22.99
2022-08-07T12:11:02.257Z,22.91
2022-08-07T12:31:02.224Z,23.32
2022-08-07T12:51:02.187Z,23.20
2022-08-07T13:11:02.170Z,23.71
2022-08-07T13:31:02.148Z,23.51
2022-08-07T13:51:02.117Z,23.39
2022-08-07T14:11:02.076Z,23.56
2022-08-07T14:31:02.052Z,23.36
2022-08-07T14:51:02.047Z,23.10
2022-08-07T15:11:01.998Z,22.99
2022-08-07T15:31:01.968Z,22.88
2022-08-07T15:51:01.916Z,22.74
2022-08-07T16:11:01.880Z,22.61
2022-08-07T16:31:01.890Z,22.47
2022-08-07T16:51:01.845Z,22.40
2022-08-07T17:11:01.789Z,22.24
2022-08-07T17:31:01.779Z,22.14
2022-08-07T17:51:01.734Z,22.00
2022-08-07T18:11:01.695Z,21.86
2022-08-07T18:31:01.686Z,21.71
2022-08-07T18:51:01.640Z,21.55
2022-08-07T19:11:06.830Z,21.51
2022-08-07T19:31:01.591Z,21.47
2022-08-07T19:51:01.564Z,21.30
2022-08-07T20:11:01.511Z,21.09
2022-08-07T20:31:01.477Z,21.08
2022-08-07T20:51:01.444Z,20.87
2022-08-07T21:11:01.415Z,20.58
2022-08-07T21:31:01.386Z,20.26
2022-08-07T21:51:01.352Z,20.12
2022-08-07T22:11:01.324Z,19.91
2022-08-07T22:31:01.328Z,19.77
2022-08-07T22:51:01.283Z,19.55
2022-08-07T23:11:01.267Z,19.55
2022-08-07T23:31:01.221Z,19.28
2022-08-07T23:51:01.187Z,19.09
